Cleveland, Virginia
Current Conditions -  °F | °C
As of 11:15 AM on Thursday 18 Dec 2014 (Local Time) from KVJI Reporting Station
Overcast Overcast  
Wind Chill: 35°   Ceiling: 7000
Heat Index: 35°   Visibility: 10mi
Dew Point: 29°   Wind: 0mph
Humidity: 78%   Direction: NA
Pressure: 30.17"   Gusts: NA
Location:  36.94°N, 82.15°W
Report Text: KVJI 181615Z AUTO 00000KT 10SM OVC070 02/M02 A3017 RMK AO2 T00161018
Loading
Personal Weather Stations






























Interactive Weather Map New forecast layout! Learn more

10-Day Weather Forecast

Advertisements
Track Severe Weather on mobile